sensor_id;sensor_type;location;lat;lon;timestamp;pressure;altitude;pressure_sealevel;temperature;humidity
9676;BME280;4876;42.656;23.292;2023-04-26T00:00:52;93432.56;;;10.21;91.02
9676;BME280;4876;42.656;23.292;2023-04-26T00:03:21;93425.56;;;10.13;90.09
9676;BME280;4876;42.656;23.292;2023-04-26T00:05:47;93428.63;;;10.15;90.69
9676;BME280;4876;42.656;23.292;2023-04-26T00:08:15;93424.47;;;10.14;90.80
9676;BME280;4876;42.656;23.292;2023-04-26T00:10:41;93418.00;;;10.12;89.68
9676;BME280;4876;42.656;23.292;2023-04-26T00:13:08;93418.00;;;10.12;90.42
9676;BME280;4876;42.656;23.292;2023-04-26T00:15:35;93419.63;;;10.16;90.01
9676;BME280;4876;42.656;23.292;2023-04-26T00:18:02;93411.22;;;10.11;88.62
9676;BME280;4876;42.656;23.292;2023-04-26T00:20:31;93397.75;;;10.12;88.81
9676;BME280;4876;42.656;23.292;2023-04-26T00:22:57;93403.78;;;10.01;89.17
9676;BME280;4876;42.656;23.292;2023-04-26T00:25:24;93398.75;;;9.95;89.57
9676;BME280;4876;42.656;23.292;2023-04-26T00:27:51;93394.34;;;9.99;90.57
9676;BME280;4876;42.656;23.292;2023-04-26T00:30:18;93401.38;;;9.95;89.15
9676;BME280;4876;42.656;23.292;2023-04-26T00:32:45;93394.13;;;9.68;90.10
9676;BME280;4876;42.656;23.292;2023-04-26T00:35:12;93383.94;;;9.66;90.78
9676;BME280;4876;42.656;23.292;2023-04-26T00:37:42;93389.63;;;9.68;91.18
9676;BME280;4876;42.656;23.292;2023-04-26T00:40:10;93389.75;;;9.72;90.57
9676;BME280;4876;42.656;23.292;2023-04-26T00:42:37;93385.25;;;9.73;89.42
9676;BME280;4876;42.656;23.292;2023-04-26T00:45:06;93395.34;;;9.70;89.08
9676;BME280;4876;42.656;23.292;2023-04-26T00:47:34;93388.75;;;9.64;88.88
9676;BME280;4876;42.656;23.292;2023-04-26T00:50:01;93392.78;;;9.50;89.77
9676;BME280;4876;42.656;23.292;2023-04-26T00:52:29;93396.38;;;9.45;89.86
9676;BME280;4876;42.656;23.292;2023-04-26T00:54:58;93393.75;;;9.45;89.95
9676;BME280;4876;42.656;23.292;2023-04-26T00:57:25;93390.47;;;9.48;89.24
9676;BME280;4876;42.656;23.292;2023-04-26T00:59:51;93380.19;;;9.43;88.69
9676;BME280;4876;42.656;23.292;2023-04-26T01:02:18;93385.75;;;9.41;88.59
9676;BME280;4876;42.656;23.292;2023-04-26T01:04:45;93396.78;;;9.35;89.53
9676;BME280;4876;42.656;23.292;2023-04-26T01:07:12;93400.66;;;9.16;90.64
9676;BME280;4876;42.656;23.292;2023-04-26T01:09:39;93398.13;;;9.08;91.97
9676;BME280;4876;42.656;23.292;2023-04-26T01:12:09;93397.53;;;8.90;92.15
9676;BME280;4876;42.656;23.292;2023-04-26T01:14:37;93399.19;;;8.74;93.52
9676;BME280;4876;42.656;23.292;2023-04-26T01:17:05;93397.78;;;8.76;94.60
9676;BME280;4876;42.656;23.292;2023-04-26T01:19:32;93385.59;;;8.59;94.52
9676;BME280;4876;42.656;23.292;2023-04-26T01:22:01;93387.56;;;8.62;96.18
9676;BME280;4876;42.656;23.292;2023-04-26T01:24:31;93377.34;;;8.70;97.25
9676;BME280;4876;42.656;23.292;2023-04-26T01:27:00;93371.44;;;8.73;96.43
9676;BME280;4876;42.656;23.292;2023-04-26T01:29:30;93370.16;;;8.79;96.22
9676;BME280;4876;42.656;23.292;2023-04-26T01:31:59;93374.31;;;8.80;95.05
9676;BME280;4876;42.656;23.292;2023-04-26T01:34:26;93391.38;;;8.86;93.09
9676;BME280;4876;42.656;23.292;2023-04-26T01:36:53;93387.22;;;8.85;92.67
9676;BME280;4876;42.656;23.292;2023-04-26T01:39:20;93390.94;;;8.84;91.11
9676;BME280;4876;42.656;23.292;2023-04-26T01:41:48;93400.09;;;8.78;92.00
9676;BME280;4876;42.656;23.292;2023-04-26T01:44:15;93399.66;;;8.76;91.44
9676;BME280;4876;42.656;23.292;2023-04-26T01:46:42;93396.75;;;8.69;91.39
9676;BME280;4876;42.656;23.292;2023-04-26T01:49:09;93398.69;;;8.59;93.67
9676;BME280;4876;42.656;23.292;2023-04-26T01:51:36;93385.75;;;8.54;94.23
9676;BME280;4876;42.656;23.292;2023-04-26T01:54:03;93388.63;;;8.61;94.28
9676;BME280;4876;42.656;23.292;2023-04-26T01:56:31;93378.03;;;8.58;95.64
9676;BME280;4876;42.656;23.292;2023-04-26T01:58:59;93376.44;;;8.66;95.40
9676;BME280;4876;42.656;23.292;2023-04-26T02:01:25;93374.44;;;8.62;96.92
9676;BME280;4876;42.656;23.292;2023-04-26T02:03:52;93375.59;;;8.74;96.06
9676;BME280;4876;42.656;23.292;2023-04-26T02:06:19;93368.16;;;8.63;95.57
9676;BME280;4876;42.656;23.292;2023-04-26T02:08:46;93364.28;;;8.61;95.97
9676;BME280;4876;42.656;23.292;2023-04-26T02:11:13;93274.13;;;7.99;96.02
9676;BME280;4876;42.656;23.292;2023-04-26T02:13:40;93373.63;;;8.71;96.00
9676;BME280;4876;42.656;23.292;2023-04-26T02:16:08;93372.22;;;8.73;95.85
9676;BME280;4876;42.656;23.292;2023-04-26T02:18:35;93361.88;;;8.77;96.03
9676;BME280;4876;42.656;23.292;2023-04-26T02:21:06;93357.50;;;8.81;95.44
9676;BME280;4876;42.656;23.292;2023-04-26T02:23:33;93370.59;;;8.81;94.21
9676;BME280;4876;42.656;23.292;2023-04-26T02:26:00;93369.31;;;8.87;94.49
9676;BME280;4876;42.656;23.292;2023-04-26T02:28:27;93366.94;;;8.94;94.65
9676;BME280;4876;42.656;23.292;2023-04-26T02:30:54;93362.09;;;8.84;95.21
9676;BME280;4876;42.656;23.292;2023-04-26T02:33:24;93362.88;;;8.84;95.14
9676;BME280;4876;42.656;23.292;2023-04-26T02:35:51;93371.81;;;8.83;95.88
9676;BME280;4876;42.656;23.292;2023-04-26T02:38:17;93371.06;;;8.83;95.93
9676;BME280;4876;42.656;23.292;2023-04-26T02:40:44;93375.47;;;8.91;96.24
9676;BME280;4876;42.656;23.292;2023-04-26T02:43:11;93365.00;;;9.03;95.70
9676;BME280;4876;42.656;23.292;2023-04-26T02:45:40;93370.47;;;8.56;96.65
9676;BME280;4876;42.656;23.292;2023-04-26T02:48:08;93341.41;;;8.49;97.09
9676;BME280;4876;42.656;23.292;2023-04-26T02:50:36;93356.38;;;8.70;97.93
9676;BME280;4876;42.656;23.292;2023-04-26T02:53:03;93353.00;;;8.81;97.33
9676;BME280;4876;42.656;23.292;2023-04-26T02:55:30;93344.03;;;8.70;96.88
9676;BME280;4876;42.656;23.292;2023-04-26T02:57:57;93353.66;;;8.78;98.81
9676;BME280;4876;42.656;23.292;2023-04-26T03:00:24;93354.69;;;8.86;97.88
9676;BME280;4876;42.656;23.292;2023-04-26T03:02:52;93361.44;;;8.87;97.58
9676;BME280;4876;42.656;23.292;2023-04-26T03:05:19;93355.56;;;8.90;98.69
9676;BME280;4876;42.656;23.292;2023-04-26T03:07:48;93350.44;;;8.94;98.16
9676;BME280;4876;42.656;23.292;2023-04-26T03:10:15;93348.38;;;8.99;96.57
9676;BME280;4876;42.656;23.292;2023-04-26T03:12:42;93352.53;;;9.00;95.75
9676;BME280;4876;42.656;23.292;2023-04-26T03:15:09;93349.00;;;8.84;97.83
9676;BME280;4876;42.656;23.292;2023-04-26T03:17:36;93353.44;;;8.71;99.27
9676;BME280;4876;42.656;23.292;2023-04-26T03:20:03;93346.03;;;8.52;99.71
9676;BME280;4876;42.656;23.292;2023-04-26T03:22:31;93349.16;;;8.46;100.00
9676;BME280;4876;42.656;23.292;2023-04-26T03:24:59;93355.94;;;8.47;100.00
9676;BME280;4876;42.656;23.292;2023-04-26T03:27:26;93350.19;;;8.53;100.00
9676;BME280;4876;42.656;23.292;2023-04-26T03:29:52;93356.75;;;8.59;100.00
9676;BME280;4876;42.656;23.292;2023-04-26T03:32:19;93348.06;;;8.68;100.00
9676;BME280;4876;42.656;23.292;2023-04-26T03:34:46;93357.34;;;8.65;100.00
9676;BME280;4876;42.656;23.292;2023-04-26T03:37:14;93357.66;;;8.63;100.00
9676;BME280;4876;42.656;23.292;2023-04-26T03:39:41;93358.63;;;8.59;100.00
9676;BME280;4876;42.656;23.292;2023-04-26T03:42:09;93360.38;;;8.67;100.00
9676;BME280;4876;42.656;23.292;2023-04-26T03:44:35;93366.06;;;8.69;100.00
9676;BME280;4876;42.656;23.292;2023-04-26T03:47:02;93362.91;;;8.63;100.00
9676;BME280;4876;42.656;23.292;2023-04-26T03:49:29;93359.88;;;8.74;100.00
9676;BME280;4876;42.656;23.292;2023-04-26T03:51:56;93363.63;;;8.85;100.00
9676;BME280;4876;42.656;23.292;2023-04-26T03:54:23;93364.31;;;8.94;100.00
9676;BME280;4876;42.656;23.292;2023-04-26T03:56:50;93366.06;;;9.35;100.00
9676;BME280;4876;42.656;23.292;2023-04-26T03:59:19;93373.25;;;9.71;100.00
9676;BME280;4876;42.656;23.292;2023-04-26T04:01:45;93382.78;;;10.25;99.56
9676;BME280;4876;42.656;23.292;2023-04-26T04:04:12;93379.88;;;10.55;96.67
9676;BME280;4876;42.656;23.292;2023-04-26T04:06:39;93385.06;;;10.39;95.95
9676;BME280;4876;42.656;23.292;2023-04-26T04:09:06;93386.19;;;10.26;95.35
9676;BME280;4876;42.656;23.292;2023-04-26T04:11:33;93389.97;;;10.16;95.64
9676;BME280;4876;42.656;23.292;2023-04-26T04:14:00;93390.22;;;10.23;94.54
9676;BME280;4876;42.656;23.292;2023-04-26T04:16:28;93385.50;;;10.04;94.83
9676;BME280;4876;42.656;23.292;2023-04-26T04:18:55;93385.28;;;10.09;96.23
9676;BME280;4876;42.656;23.292;2023-04-26T04:21:22;93385.91;;;9.45;100.00
9676;BME280;4876;42.656;23.292;2023-04-26T04:23:49;93383.25;;;9.33;100.00
9676;BME280;4876;42.656;23.292;2023-04-26T04:26:15;93384.81;;;9.46;100.00
9676;BME280;4876;42.656;23.292;2023-04-26T04:28:43;93390.31;;;9.20;100.00
9676;BME280;4876;42.656;23.292;2023-04-26T04:31:11;93400.03;;;9.20;100.00
9676;BME280;4876;42.656;23.292;2023-04-26T04:33:40;93400.03;;;9.20;100.00
9676;BME280;4876;42.656;23.292;2023-04-26T04:36:07;93406.81;;;9.21;100.00
9676;BME280;4876;42.656;23.292;2023-04-26T04:38:34;93416.34;;;9.37;100.00
9676;BME280;4876;42.656;23.292;2023-04-26T04:41:02;93407.25;;;9.92;99.45
9676;BME280;4876;42.656;23.292;2023-04-26T04:43:28;93404.00;;;9.95;94.22
9676;BME280;4876;42.656;23.292;2023-04-26T04:45:55;93400.28;;;9.96;93.73
9676;BME280;4876;42.656;23.292;2023-04-26T04:48:22;93409.66;;;9.85;97.46
9676;BME280;4876;42.656;23.292;2023-04-26T04:50:51;93406.44;;;9.55;98.35
9676;BME280;4876;42.656;23.292;2023-04-26T04:53:18;93399.44;;;9.47;100.00
9676;BME280;4876;42.656;23.292;2023-04-26T04:55:45;93411.28;;;9.65;99.77
9676;BME280;4876;42.656;23.292;2023-04-26T04:58:11;93412.81;;;9.66;98.42
9676;BME280;4876;42.656;23.292;2023-04-26T05:00:39;93414.28;;;9.43;99.26
9676;BME280;4876;42.656;23.292;2023-04-26T05:03:06;93402.97;;;9.51;99.79
9676;BME280;4876;42.656;23.292;2023-04-26T05:05:36;93403.66;;;9.85;96.54
9676;BME280;4876;42.656;23.292;2023-04-26T05:08:05;93385.28;;;9.85;94.84
9676;BME280;4876;42.656;23.292;2023-04-26T05:10:33;93380.44;;;9.87;92.31
9676;BME280;4876;42.656;23.292;2023-04-26T05:13:00;93402.38;;;10.28;91.45
9676;BME280;4876;42.656;23.292;2023-04-26T05:15:27;93408.94;;;10.34;90.18
9676;BME280;4876;42.656;23.292;2023-04-26T05:17:53;93404.31;;;10.31;90.22
9676;BME280;4876;42.656;23.292;2023-04-26T05:20:22;93406.94;;;10.43;89.03
9676;BME280;4876;42.656;23.292;2023-04-26T05:22:48;93407.19;;;10.26;90.49
9676;BME280;4876;42.656;23.292;2023-04-26T05:25:17;93418.53;;;10.54;88.89
9676;BME280;4876;42.656;23.292;2023-04-26T05:27:44;93416.31;;;11.09;85.92
9676;BME280;4876;42.656;23.292;2023-04-26T05:30:11;93419.78;;;11.25;82.74
9676;BME280;4876;42.656;23.292;2023-04-26T05:32:38;93414.59;;;11.28;82.31
9676;BME280;4876;42.656;23.292;2023-04-26T05:35:06;93414.81;;;11.23;81.99
9676;BME280;4876;42.656;23.292;2023-04-26T05:37:33;93418.38;;;11.15;81.92
9676;BME280;4876;42.656;23.292;2023-04-26T05:40:00;93432.69;;;11.02;85.21
9676;BME280;4876;42.656;23.292;2023-04-26T05:42:28;93430.88;;;10.78;87.88
9676;BME280;4876;42.656;23.292;2023-04-26T05:44:56;93426.16;;;10.84;90.39
9676;BME280;4876;42.656;23.292;2023-04-26T05:47:23;93433.63;;;10.82;88.91
9676;BME280;4876;42.656;23.292;2023-04-26T05:49:50;93422.41;;;10.85;88.33
9676;BME280;4876;42.656;23.292;2023-04-26T05:52:17;93434.22;;;10.91;87.98
9676;BME280;4876;42.656;23.292;2023-04-26T05:54:43;93432.69;;;11.02;88.87
9676;BME280;4876;42.656;23.292;2023-04-26T05:57:10;93431.94;;;11.17;87.40
9676;BME280;4876;42.656;23.292;2023-04-26T05:59:38;93426.53;;;10.98;87.83
9676;BME280;4876;42.656;23.292;2023-04-26T06:02:05;93424.06;;;11.17;85.83
9676;BME280;4876;42.656;23.292;2023-04-26T06:04:32;93431.13;;;11.29;86.61
9676;BME280;4876;42.656;23.292;2023-04-26T06:06:59;93428.09;;;11.27;85.63
9676;BME280;4876;42.656;23.292;2023-04-26T06:09:26;93434.19;;;11.59;85.33
9676;BME280;4876;42.656;23.292;2023-04-26T06:11:53;93426.16;;;11.83;76.32
9676;BME280;4876;42.656;23.292;2023-04-26T06:14:20;93431.53;;;12.03;70.17
9676;BME280;4876;42.656;23.292;2023-04-26T06:16:48;93391.44;;;11.94;69.26
9676;BME280;4876;42.656;23.292;2023-04-26T06:19:14;93439.88;;;12.05;69.14
9676;BME280;4876;42.656;23.292;2023-04-26T06:21:41;93445.75;;;11.70;70.23
9676;BME280;4876;42.656;23.292;2023-04-26T06:24:08;93439.81;;;11.73;72.04
9676;BME280;4876;42.656;23.292;2023-04-26T06:26:35;93446.66;;;11.90;70.11
9676;BME280;4876;42.656;23.292;2023-04-26T06:29:02;93445.53;;;11.91;68.75
9676;BME280;4876;42.656;23.292;2023-04-26T06:31:29;93443.31;;;11.77;67.39
9676;BME280;4876;42.656;23.292;2023-04-26T06:33:57;93448.56;;;11.77;69.13
9676;BME280;4876;42.656;23.292;2023-04-26T06:36:24;93443.22;;;11.74;69.23
9676;BME280;4876;42.656;23.292;2023-04-26T06:38:52;93443.16;;;11.86;69.46
9676;BME280;4876;42.656;23.292;2023-04-26T06:41:19;93441.16;;;11.67;70.53
9676;BME280;4876;42.656;23.292;2023-04-26T06:43:46;93450.03;;;11.75;69.79
9676;BME280;4876;42.656;23.292;2023-04-26T06:46:13;93447.09;;;11.64;69.01
9676;BME280;4876;42.656;23.292;2023-04-26T06:48:40;93443.66;;;11.48;69.16
9676;BME280;4876;42.656;23.292;2023-04-26T06:51:08;93453.97;;;11.53;69.19
9676;BME280;4876;42.656;23.292;2023-04-26T06:53:35;93450.59;;;11.68;68.57
9676;BME280;4876;42.656;23.292;2023-04-26T06:56:03;93448.28;;;11.51;68.14
9676;BME280;4876;42.656;23.292;2023-04-26T06:58:30;93454.03;;;11.84;66.75
9676;BME280;4876;42.656;23.292;2023-04-26T07:00:56;93461.53;;;11.82;67.25
9676;BME280;4876;42.656;23.292;2023-04-26T07:03:23;93451.03;;;11.70;67.06
9676;BME280;4876;42.656;23.292;2023-04-26T07:05:50;93462.16;;;11.64;67.69
9676;BME280;4876;42.656;23.292;2023-04-26T07:08:18;93455.75;;;11.93;67.30
9676;BME280;4876;42.656;23.292;2023-04-26T07:10:45;93455.91;;;12.16;65.66
9676;BME280;4876;42.656;23.292;2023-04-26T07:13:12;93453.78;;;12.21;63.50
9676;BME280;4876;42.656;23.292;2023-04-26T07:15:39;93454.72;;;12.29;64.61
9676;BME280;4876;42.656;23.292;2023-04-26T07:18:07;93452.59;;;12.03;64.43
9676;BME280;4876;42.656;23.292;2023-04-26T07:20:34;93447.47;;;12.42;63.08
9676;BME280;4876;42.656;23.292;2023-04-26T07:23:00;93445.28;;;12.79;61.12
9676;BME280;4876;42.656;23.292;2023-04-26T07:25:29;93446.78;;;13.15;58.33
9676;BME280;4876;42.656;23.292;2023-04-26T07:27:55;93450.44;;;13.10;58.74
9676;BME280;4876;42.656;23.292;2023-04-26T07:30:22;93454.25;;;12.74;56.04
9676;BME280;4876;42.656;23.292;2023-04-26T07:32:49;93451.78;;;12.65;57.04
9676;BME280;4876;42.656;23.292;2023-04-26T07:35:17;93451.78;;;12.65;58.61
9676;BME280;4876;42.656;23.292;2023-04-26T07:37:44;93461.88;;;12.79;57.76
9676;BME280;4876;42.656;23.292;2023-04-26T07:40:12;93459.22;;;12.79;57.90
9676;BME280;4876;42.656;23.292;2023-04-26T07:42:40;93458.22;;;12.33;59.49
9676;BME280;4876;42.656;23.292;2023-04-26T07:45:08;93472.47;;;12.48;58.63
9676;BME280;4876;42.656;23.292;2023-04-26T07:47:36;93474.69;;;12.46;58.07
9676;BME280;4876;42.656;23.292;2023-04-26T07:50:03;93470.63;;;12.32;58.14
9676;BME280;4876;42.656;23.292;2023-04-26T07:52:30;93476.91;;;12.28;58.39
9676;BME280;4876;42.656;23.292;2023-04-26T07:54:57;93480.16;;;12.21;59.07
9676;BME280;4876;42.656;23.292;2023-04-26T07:57:24;93480.41;;;12.00;59.20
9676;BME280;4876;42.656;23.292;2023-04-26T07:59:52;93477.09;;;11.88;60.42
9676;BME280;4876;42.656;23.292;2023-04-26T08:02:19;93474.81;;;12.18;59.92
9676;BME280;4876;42.656;23.292;2023-04-26T08:04:47;93488.84;;;12.06;58.66
9676;BME280;4876;42.656;23.292;2023-04-26T08:07:17;93482.94;;;11.97;60.22
9676;BME280;4876;42.656;23.292;2023-04-26T08:09:44;93488.13;;;12.09;60.56
9676;BME280;4876;42.656;23.292;2023-04-26T08:12:11;93474.38;;;12.00;61.09
9676;BME280;4876;42.656;23.292;2023-04-26T08:14:38;93484.41;;;12.42;59.25
9676;BME280;4876;42.656;23.292;2023-04-26T08:17:06;93476.66;;;12.49;58.57
9676;BME280;4876;42.656;23.292;2023-04-26T08:19:34;93484.59;;;12.49;57.83
9676;BME280;4876;42.656;23.292;2023-04-26T08:22:01;93482.59;;;12.61;58.65
9676;BME280;4876;42.656;23.292;2023-04-26T08:24:28;93486.25;;;12.57;58.92
9676;BME280;4876;42.656;23.292;2023-04-26T08:26:55;93488.50;;;12.39;59.63
9676;BME280;4876;42.656;23.292;2023-04-26T08:29:22;93482.50;;;12.58;58.68
9676;BME280;4876;42.656;23.292;2023-04-26T08:31:50;93482.28;;;12.31;59.16
9676;BME280;4876;42.656;23.292;2023-04-26T08:34:18;93481.19;;;12.32;60.10
9676;BME280;4876;42.656;23.292;2023-04-26T08:36:44;93479.97;;;12.46;58.94
9676;BME280;4876;42.656;23.292;2023-04-26T08:39:11;93482.94;;;12.28;59.02
9676;BME280;4876;42.656;23.292;2023-04-26T08:41:42;93482.09;;;12.40;59.02
9676;BME280;4876;42.656;23.292;2023-04-26T08:44:09;93484.81;;;12.28;59.74
9676;BME280;4876;42.656;23.292;2023-04-26T08:46:42;93485.41;;;12.53;59.40
9676;BME280;4876;42.656;23.292;2023-04-26T08:49:16;93484.91;;;12.63;58.18
9676;BME280;4876;42.656;23.292;2023-04-26T08:51:50;93487.16;;;12.80;58.01
9676;BME280;4876;42.656;23.292;2023-04-26T08:54:18;93488.91;;;12.57;59.03
9676;BME280;4876;42.656;23.292;2023-04-26T08:56:46;93492.25;;;12.73;58.64
9676;BME280;4876;42.656;23.292;2023-04-26T08:59:13;93485.06;;;12.70;58.73
9676;BME280;4876;42.656;23.292;2023-04-26T09:01:42;93485.88;;;13.09;58.02
9676;BME280;4876;42.656;23.292;2023-04-26T09:04:09;93485.16;;;13.28;57.37
9676;BME280;4876;42.656;23.292;2023-04-26T09:06:37;93442.88;;;13.09;56.68
9676;BME280;4876;42.656;23.292;2023-04-26T09:09:08;93495.41;;;13.49;55.62
9676;BME280;4876;42.656;23.292;2023-04-26T09:11:53;93488.28;;;13.53;56.14
9676;BME280;4876;42.656;23.292;2023-04-26T09:14:20;93497.19;;;13.10;57.96
9676;BME280;4876;42.656;23.292;2023-04-26T09:16:47;93465.59;;;12.94;58.01
9676;BME280;4876;42.656;23.292;2023-04-26T09:19:13;93491.16;;;13.25;57.04
9676;BME280;4876;42.656;23.292;2023-04-26T09:21:42;93501.00;;;12.93;57.79
9676;BME280;4876;42.656;23.292;2023-04-26T09:24:11;93502.97;;;13.31;57.51
9676;BME280;4876;42.656;23.292;2023-04-26T09:26:39;93493.03;;;13.44;55.51
9676;BME280;4876;42.656;23.292;2023-04-26T09:29:14;93501.84;;;13.52;56.60
9676;BME280;4876;42.656;23.292;2023-04-26T09:31:42;93508.03;;;13.59;55.69
9676;BME280;4876;42.656;23.292;2023-04-26T09:34:10;93495.44;;;13.72;56.17
9676;BME280;4876;42.656;23.292;2023-04-26T09:36:48;93496.69;;;13.97;54.46
9676;BME280;4876;42.656;23.292;2023-04-26T09:39:28;93476.09;;;13.87;54.83
9676;BME280;4876;42.656;23.292;2023-04-26T09:41:56;93502.44;;;14.26;54.28
9676;BME280;4876;42.656;23.292;2023-04-26T09:44:24;93494.38;;;14.19;53.86
9676;BME280;4876;42.656;23.292;2023-04-26T09:47:01;93486.22;;;14.05;54.46
9676;BME280;4876;42.656;23.292;2023-04-26T09:49:30;93483.47;;;13.78;54.49
9676;BME280;4876;42.656;23.292;2023-04-26T09:52:01;93489.97;;;14.04;53.34
9676;BME280;4876;42.656;23.292;2023-04-26T09:54:41;93482.81;;;14.27;55.25
9676;BME280;4876;42.656;23.292;2023-04-26T09:57:08;93482.41;;;14.48;52.42
9676;BME280;4876;42.656;23.292;2023-04-26T09:59:42;93490.56;;;14.16;53.63
9676;BME280;4876;42.656;23.292;2023-04-26T10:02:17;93489.66;;;13.86;53.45
9676;BME280;4876;42.656;23.292;2023-04-26T10:04:47;93491.59;;;13.89;53.60
9676;BME280;4876;42.656;23.292;2023-04-26T10:07:15;93486.53;;;13.80;54.17
9676;BME280;4876;42.656;23.292;2023-04-26T10:09:45;93487.34;;;13.61;54.39
9676;BME280;4876;42.656;23.292;2023-04-26T10:12:14;93488.09;;;13.42;53.55
9676;BME280;4876;42.656;23.292;2023-04-26T10:14:42;93487.22;;;13.77;53.66
9676;BME280;4876;42.656;23.292;2023-04-26T10:17:09;93475.22;;;14.02;51.50
9676;BME280;4876;42.656;23.292;2023-04-26T10:19:38;93469.53;;;14.00;51.42
9676;BME280;4876;42.656;23.292;2023-04-26T10:22:10;93476.84;;;14.34;51.03
9676;BME280;4876;42.656;23.292;2023-04-26T10:24:39;93483.38;;;14.40;50.68
9676;BME280;4876;42.656;23.292;2023-04-26T10:27:07;93481.00;;;14.31;50.63
9676;BME280;4876;42.656;23.292;2023-04-26T10:30:06;93477.06;;;13.98;50.78
9676;BME280;4876;42.656;23.292;2023-04-26T10:33:10;93476.94;;;13.91;51.12
9676;BME280;4876;42.656;23.292;2023-04-26T10:36:08;93469.88;;;13.99;50.97
9676;BME280;4876;42.656;23.292;2023-04-26T10:38:36;93472.09;;;13.74;52.03
9676;BME280;4876;42.656;23.292;2023-04-26T10:41:29;93482.38;;;13.60;52.18
9676;BME280;4876;42.656;23.292;2023-04-26T10:43:59;93469.94;;;13.41;51.96
9676;BME280;4876;42.656;23.292;2023-04-26T10:46:34;93470.09;;;13.90;50.81
9676;BME280;4876;42.656;23.292;2023-04-26T10:49:14;93452.84;;;13.96;49.95
9676;BME280;4876;42.656;23.292;2023-04-26T10:52:09;93467.25;;;13.99;49.57
9676;BME280;4876;42.656;23.292;2023-04-26T10:54:53;93456.78;;;13.64;50.30
9676;BME280;4876;42.656;23.292;2023-04-26T10:57:21;93474.44;;;13.79;50.22
9676;BME280;4876;42.656;23.292;2023-04-26T11:00:24;93464.44;;;13.69;49.73
9676;BME280;4876;42.656;23.292;2023-04-26T11:03:01;93465.06;;;13.62;50.24
9676;BME280;4876;42.656;23.292;2023-04-26T11:05:40;93481.19;;;13.77;48.94
9676;BME280;4876;42.656;23.292;2023-04-26T11:08:15;93468.84;;;13.84;48.90
9676;BME280;4876;42.656;23.292;2023-04-26T11:10:45;93473.09;;;13.89;48.87
9676;BME280;4876;42.656;23.292;2023-04-26T11:13:16;93468.94;;;14.11;49.01
9676;BME280;4876;42.656;23.292;2023-04-26T11:15:45;93468.69;;;13.96;48.85
9676;BME280;4876;42.656;23.292;2023-04-26T11:18:12;93471.13;;;14.05;48.82
9676;BME280;4876;42.656;23.292;2023-04-26T11:20:39;93467.44;;;13.90;49.64
9676;BME280;4876;42.656;23.292;2023-04-26T11:23:06;93477.28;;;14.13;48.79
9676;BME280;4876;42.656;23.292;2023-04-26T11:25:34;93471.44;;;14.04;48.64
9676;BME280;4876;42.656;23.292;2023-04-26T11:28:02;93458.22;;;14.04;49.67
9676;BME280;4876;42.656;23.292;2023-04-26T11:30:29;93473.16;;;14.38;48.62
9676;BME280;4876;42.656;23.292;2023-04-26T11:32:59;93453.72;;;14.50;47.94
9676;BME280;4876;42.656;23.292;2023-04-26T11:35:26;93467.03;;;14.84;46.90
9676;BME280;4876;42.656;23.292;2023-04-26T11:37:57;93462.28;;;14.66;46.63
9676;BME280;4876;42.656;23.292;2023-04-26T11:40:27;93469.69;;;14.34;46.59
9676;BME280;4876;42.656;23.292;2023-04-26T11:42:54;93481.63;;;14.01;48.50
9676;BME280;4876;42.656;23.292;2023-04-26T11:45:24;93475.13;;;14.18;48.56
9676;BME280;4876;42.656;23.292;2023-04-26T11:47:51;93477.41;;;14.20;49.55
9676;BME280;4876;42.656;23.292;2023-04-26T11:50:20;93466.56;;;14.48;49.28
9676;BME280;4876;42.656;23.292;2023-04-26T11:52:52;93472.75;;;14.86;48.00
9676;BME280;4876;42.656;23.292;2023-04-26T11:55:22;93469.72;;;15.14;45.86
9676;BME280;4876;42.656;23.292;2023-04-26T11:57:50;93485.00;;;15.24;45.61
9676;BME280;4876;42.656;23.292;2023-04-26T12:00:18;93466.38;;;15.17;45.47
9676;BME280;4876;42.656;23.292;2023-04-26T12:02:46;93460.78;;;14.95;46.11
9676;BME280;4876;42.656;23.292;2023-04-26T12:05:22;93465.63;;;15.20;46.05
9676;BME280;4876;42.656;23.292;2023-04-26T12:07:49;93467.88;;;15.18;46.09
9676;BME280;4876;42.656;23.292;2023-04-26T12:10:18;93465.31;;;15.25;46.06
9676;BME280;4876;42.656;23.292;2023-04-26T12:12:46;93460.66;;;15.15;46.65
9676;BME280;4876;42.656;23.292;2023-04-26T12:15:14;93461.63;;;15.33;46.92
9676;BME280;4876;42.656;23.292;2023-04-26T12:17:51;93457.16;;;15.37;46.28
9676;BME280;4876;42.656;23.292;2023-04-26T12:20:18;93456.13;;;15.15;45.64
9676;BME280;4876;42.656;23.292;2023-04-26T12:23:01;93473.81;;;14.81;45.57
9676;BME280;4876;42.656;23.292;2023-04-26T12:25:28;93457.44;;;14.98;45.19
9676;BME280;4876;42.656;23.292;2023-04-26T12:27:55;93454.66;;;15.18;45.49
9676;BME280;4876;42.656;23.292;2023-04-26T12:30:23;93460.69;;;15.18;44.46
9676;BME280;4876;42.656;23.292;2023-04-26T12:32:50;93459.78;;;14.77;45.12
9676;BME280;4876;42.656;23.292;2023-04-26T12:35:17;93462.63;;;14.65;45.94
9676;BME280;4876;42.656;23.292;2023-04-26T12:37:44;93459.63;;;14.43;46.81
9676;BME280;4876;42.656;23.292;2023-04-26T12:40:13;93454.09;;;14.48;46.96
9676;BME280;4876;42.656;23.292;2023-04-26T12:42:40;93451.84;;;14.77;46.73
9676;BME280;4876;42.656;23.292;2023-04-26T12:45:07;93446.16;;;14.48;48.47
9676;BME280;4876;42.656;23.292;2023-04-26T12:47:34;93453.88;;;14.61;48.23
9676;BME280;4876;42.656;23.292;2023-04-26T12:50:01;93453.16;;;14.41;47.75
9676;BME280;4876;42.656;23.292;2023-04-26T12:52:29;93467.75;;;14.08;48.95
9676;BME280;4876;42.656;23.292;2023-04-26T12:54:56;93449.63;;;14.07;47.12
9676;BME280;4876;42.656;23.292;2023-04-26T12:57:24;93455.31;;;14.09;46.92
9676;BME280;4876;42.656;23.292;2023-04-26T12:59:51;93450.31;;;14.04;48.51
9676;BME280;4876;42.656;23.292;2023-04-26T13:02:18;93451.69;;;14.17;48.98
9676;BME280;4876;42.656;23.292;2023-04-26T13:04:45;93459.94;;;14.15;49.06
9676;BME280;4876;42.656;23.292;2023-04-26T13:07:12;93452.31;;;14.10;49.83
9676;BME280;4876;42.656;23.292;2023-04-26T13:09:38;93464.91;;;14.17;50.63
9676;BME280;4876;42.656;23.292;2023-04-26T13:12:05;93463.94;;;14.06;49.01
9676;BME280;4876;42.656;23.292;2023-04-26T13:14:33;93473.44;;;13.87;50.13
9676;BME280;4876;42.656;23.292;2023-04-26T13:17:00;93471.84;;;13.83;50.06
9676;BME280;4876;42.656;23.292;2023-04-26T13:19:30;93477.16;;;13.63;49.85
9676;BME280;4876;42.656;23.292;2023-04-26T13:21:57;93478.31;;;13.43;49.65